sensor_id;sensor_type;location;lat;lon;timestamp;P1;durP1;ratioP1;P2;durP2;ratioP2
70757;SDS011;59316;52.964;7.102;2023-09-19T00:00:55;9.32;;;1.75;;
70757;SDS011;59316;52.964;7.102;2023-09-19T00:06:18;4.90;;;1.35;;
70757;SDS011;59316;52.964;7.102;2023-09-19T00:11:39;4.45;;;2.00;;
70757;SDS011;59316;52.964;7.102;2023-09-19T00:17:01;12.07;;;2.10;;
70757;SDS011;59316;52.964;7.102;2023-09-19T00:22:23;4.88;;;1.60;;
70757;SDS011;59316;52.964;7.102;2023-09-19T00:27:44;6.65;;;1.70;;
70757;SDS011;59316;52.964;7.102;2023-09-19T00:33:06;6.88;;;1.67;;
70757;SDS011;59316;52.964;7.102;2023-09-19T00:38:28;6.13;;;1.73;;
70757;SDS011;59316;52.964;7.102;2023-09-19T00:43:49;3.08;;;1.17;;
70757;SDS011;59316;52.964;7.102;2023-09-19T00:49:11;6.03;;;1.70;;
70757;SDS011;59316;52.964;7.102;2023-09-19T00:54:36;6.05;;;1.60;;
70757;SDS011;59316;52.964;7.102;2023-09-19T00:59:57;9.40;;;1.40;;
70757;SDS011;59316;52.964;7.102;2023-09-19T01:05:21;5.43;;;1.53;;
70757;SDS011;59316;52.964;7.102;2023-09-19T01:10:52;10.27;;;1.83;;
70757;SDS011;59316;52.964;7.102;2023-09-19T01:34:10;6.60;;;1.92;;
70757;SDS011;59316;52.964;7.102;2023-09-19T01:39:23;8.65;;;2.08;;
70757;SDS011;59316;52.964;7.102;2023-09-19T01:50:32;6.22;;;2.10;;
70757;SDS011;59316;52.964;7.102;2023-09-19T01:56:16;11.35;;;2.42;;
70757;SDS011;59316;52.964;7.102;2023-09-19T02:01:49;10.95;;;3.05;;
70757;SDS011;59316;52.964;7.102;2023-09-19T02:07:12;9.13;;;2.35;;
70757;SDS011;59316;52.964;7.102;2023-09-19T02:12:34;9.27;;;3.10;;
70757;SDS011;59316;52.964;7.102;2023-09-19T02:17:56;16.60;;;3.60;;
70757;SDS011;59316;52.964;7.102;2023-09-19T02:23:17;12.18;;;2.75;;
70757;SDS011;59316;52.964;7.102;2023-09-19T02:28:39;11.52;;;2.85;;
70757;SDS011;59316;52.964;7.102;2023-09-19T02:34:02;9.43;;;2.88;;
70757;SDS011;59316;52.964;7.102;2023-09-19T02:39:23;7.18;;;2.95;;
70757;SDS011;59316;52.964;7.102;2023-09-19T02:44:44;10.95;;;3.00;;
70757;SDS011;59316;52.964;7.102;2023-09-19T02:50:05;8.80;;;3.05;;
70757;SDS011;59316;52.964;7.102;2023-09-19T02:55:27;7.97;;;2.60;;
70757;SDS011;59316;52.964;7.102;2023-09-19T03:00:48;10.55;;;2.75;;
70757;SDS011;59316;52.964;7.102;2023-09-19T03:06:11;12.05;;;3.08;;
70757;SDS011;59316;52.964;7.102;2023-09-19T03:11:33;9.85;;;3.13;;
70757;SDS011;59316;52.964;7.102;2023-09-19T03:16:55;8.07;;;2.75;;
70757;SDS011;59316;52.964;7.102;2023-09-19T03:22:16;8.18;;;2.97;;
70757;SDS011;59316;52.964;7.102;2023-09-19T03:27:38;10.73;;;2.88;;
70757;SDS011;59316;52.964;7.102;2023-09-19T03:33:00;14.68;;;4.03;;
70757;SDS011;59316;52.964;7.102;2023-09-19T03:38:23;10.50;;;2.30;;
70757;SDS011;59316;52.964;7.102;2023-09-19T03:43:44;9.48;;;3.03;;
70757;SDS011;59316;52.964;7.102;2023-09-19T03:49:06;10.10;;;2.50;;
70757;SDS011;59316;52.964;7.102;2023-09-19T03:54:27;10.00;;;2.40;;
70757;SDS011;59316;52.964;7.102;2023-09-19T03:59:49;9.25;;;2.28;;
70757;SDS011;59316;52.964;7.102;2023-09-19T04:05:10;10.85;;;2.42;;
70757;SDS011;59316;52.964;7.102;2023-09-19T04:10:32;7.30;;;2.13;;
70757;SDS011;59316;52.964;7.102;2023-09-19T04:15:53;8.32;;;2.13;;
70757;SDS011;59316;52.964;7.102;2023-09-19T04:21:14;8.27;;;2.15;;
70757;SDS011;59316;52.964;7.102;2023-09-19T04:26:36;12.10;;;2.20;;
70757;SDS011;59316;52.964;7.102;2023-09-19T04:31:57;7.68;;;2.03;;
70757;SDS011;59316;52.964;7.102;2023-09-19T04:37:19;17.30;;;2.70;;
70757;SDS011;59316;52.964;7.102;2023-09-19T04:42:40;12.80;;;2.13;;
70757;SDS011;59316;52.964;7.102;2023-09-19T04:48:02;14.68;;;2.72;;
70757;SDS011;59316;52.964;7.102;2023-09-19T04:53:24;14.70;;;3.42;;
70757;SDS011;59316;52.964;7.102;2023-09-19T04:58:45;13.50;;;2.85;;
70757;SDS011;59316;52.964;7.102;2023-09-19T05:04:07;8.68;;;2.28;;
70757;SDS011;59316;52.964;7.102;2023-09-19T05:09:28;9.60;;;2.78;;
70757;SDS011;59316;52.964;7.102;2023-09-19T05:14:49;10.85;;;2.38;;
70757;SDS011;59316;52.964;7.102;2023-09-19T05:20:11;9.05;;;2.40;;
70757;SDS011;59316;52.964;7.102;2023-09-19T05:25:32;14.43;;;2.67;;
70757;SDS011;59316;52.964;7.102;2023-09-19T05:30:55;13.75;;;3.00;;
70757;SDS011;59316;52.964;7.102;2023-09-19T05:36:16;12.05;;;2.13;;
70757;SDS011;59316;52.964;7.102;2023-09-19T05:41:38;11.60;;;2.00;;
70757;SDS011;59316;52.964;7.102;2023-09-19T05:46:59;10.35;;;2.30;;
70757;SDS011;59316;52.964;7.102;2023-09-19T05:52:20;7.05;;;2.03;;
70757;SDS011;59316;52.964;7.102;2023-09-19T05:57:41;12.40;;;2.05;;
70757;SDS011;59316;52.964;7.102;2023-09-19T06:03:03;11.85;;;2.45;;
70757;SDS011;59316;52.964;7.102;2023-09-19T06:08:24;9.02;;;1.98;;
70757;SDS011;59316;52.964;7.102;2023-09-19T06:13:46;7.78;;;2.00;;
70757;SDS011;59316;52.964;7.102;2023-09-19T06:19:07;11.00;;;2.42;;
70757;SDS011;59316;52.964;7.102;2023-09-19T06:24:28;10.70;;;2.22;;
70757;SDS011;59316;52.964;7.102;2023-09-19T06:29:49;10.68;;;2.17;;
70757;SDS011;59316;52.964;7.102;2023-09-19T06:35:11;10.48;;;2.08;;
70757;SDS011;59316;52.964;7.102;2023-09-19T06:40:34;8.95;;;1.67;;
70757;SDS011;59316;52.964;7.102;2023-09-19T06:45:56;11.85;;;2.00;;
70757;SDS011;59316;52.964;7.102;2023-09-19T06:51:18;9.95;;;1.83;;
70757;SDS011;59316;52.964;7.102;2023-09-19T06:56:39;9.88;;;1.95;;
70757;SDS011;59316;52.964;7.102;2023-09-19T07:02:00;8.57;;;2.05;;
70757;SDS011;59316;52.964;7.102;2023-09-19T07:07:22;10.55;;;2.45;;
70757;SDS011;59316;52.964;7.102;2023-09-19T07:12:43;7.03;;;2.15;;
70757;SDS011;59316;52.964;7.102;2023-09-19T07:18:05;6.97;;;2.03;;
70757;SDS011;59316;52.964;7.102;2023-09-19T07:23:27;9.95;;;2.20;;
70757;SDS011;59316;52.964;7.102;2023-09-19T07:28:48;10.18;;;1.63;;
70757;SDS011;59316;52.964;7.102;2023-09-19T07:34:09;4.72;;;1.65;;
70757;SDS011;59316;52.964;7.102;2023-09-19T07:39:30;5.82;;;1.70;;
70757;SDS011;59316;52.964;7.102;2023-09-19T07:44:52;6.20;;;1.63;;
70757;SDS011;59316;52.964;7.102;2023-09-19T07:50:14;4.70;;;1.80;;
70757;SDS011;59316;52.964;7.102;2023-09-19T07:55:37;12.00;;;2.13;;
70757;SDS011;59316;52.964;7.102;2023-09-19T08:01:05;8.43;;;2.00;;
70757;SDS011;59316;52.964;7.102;2023-09-19T08:06:28;9.30;;;1.85;;
70757;SDS011;59316;52.964;7.102;2023-09-19T08:11:50;6.25;;;1.67;;
70757;SDS011;59316;52.964;7.102;2023-09-19T08:17:11;6.90;;;1.48;;
70757;SDS011;59316;52.964;7.102;2023-09-19T08:22:33;8.32;;;1.55;;
70757;SDS011;59316;52.964;7.102;2023-09-19T08:27:54;5.10;;;1.60;;
70757;SDS011;59316;52.964;7.102;2023-09-19T08:33:16;7.97;;;1.58;;
70757;SDS011;59316;52.964;7.102;2023-09-19T08:38:37;5.97;;;1.70;;
70757;SDS011;59316;52.964;7.102;2023-09-19T08:43:59;9.98;;;2.13;;
70757;SDS011;59316;52.964;7.102;2023-09-19T08:49:33;7.68;;;1.50;;
70757;SDS011;59316;52.964;7.102;2023-09-19T08:55:11;8.70;;;1.40;;
70757;SDS011;59316;52.964;7.102;2023-09-19T09:00:34;10.57;;;1.88;;
70757;SDS011;59316;52.964;7.102;2023-09-19T09:05:57;8.52;;;1.83;;
70757;SDS011;59316;52.964;7.102;2023-09-19T09:11:19;11.45;;;2.30;;
70757;SDS011;59316;52.964;7.102;2023-09-19T09:16:41;10.18;;;2.40;;
70757;SDS011;59316;52.964;7.102;2023-09-19T09:22:09;9.38;;;1.80;;
70757;SDS011;59316;52.964;7.102;2023-09-19T09:27:31;9.55;;;1.80;;
70757;SDS011;59316;52.964;7.102;2023-09-19T09:33:07;6.75;;;1.95;;
70757;SDS011;59316;52.964;7.102;2023-09-19T09:38:43;10.55;;;2.17;;
70757;SDS011;59316;52.964;7.102;2023-09-19T09:44:15;9.93;;;1.92;;
70757;SDS011;59316;52.964;7.102;2023-09-19T09:49:37;11.02;;;2.10;;
70757;SDS011;59316;52.964;7.102;2023-09-19T09:55:01;13.50;;;2.47;;
70757;SDS011;59316;52.964;7.102;2023-09-19T10:00:23;11.60;;;2.20;;
70757;SDS011;59316;52.964;7.102;2023-09-19T10:05:45;5.50;;;1.77;;
70757;SDS011;59316;52.964;7.102;2023-09-19T10:11:15;8.10;;;1.70;;
70757;SDS011;59316;52.964;7.102;2023-09-19T10:16:39;8.40;;;1.80;;
70757;SDS011;59316;52.964;7.102;2023-09-19T10:22:10;11.67;;;1.90;;
70757;SDS011;59316;52.964;7.102;2023-09-19T10:27:33;11.05;;;2.20;;
70757;SDS011;59316;52.964;7.102;2023-09-19T10:33:00;11.35;;;2.40;;
70757;SDS011;59316;52.964;7.102;2023-09-19T10:38:24;12.15;;;2.38;;
70757;SDS011;59316;52.964;7.102;2023-09-19T10:43:48;11.48;;;2.20;;
70757;SDS011;59316;52.964;7.102;2023-09-19T10:49:09;11.40;;;2.55;;
70757;SDS011;59316;52.964;7.102;2023-09-19T10:54:33;8.65;;;2.38;;
70757;SDS011;59316;52.964;7.102;2023-09-19T11:00:04;9.93;;;1.73;;
70757;SDS011;59316;52.964;7.102;2023-09-19T11:05:30;7.53;;;2.10;;
70757;SDS011;59316;52.964;7.102;2023-09-19T11:10:51;8.82;;;2.00;;
70757;SDS011;59316;52.964;7.102;2023-09-19T11:16:17;6.93;;;1.90;;
70757;SDS011;59316;52.964;7.102;2023-09-19T11:21:39;6.60;;;2.03;;
70757;SDS011;59316;52.964;7.102;2023-09-19T11:27:11;10.50;;;1.92;;
70757;SDS011;59316;52.964;7.102;2023-09-19T11:33:15;10.90;;;2.00;;
70757;SDS011;59316;52.964;7.102;2023-09-19T11:49:26;6.72;;;1.70;;
70757;SDS011;59316;52.964;7.102;2023-09-19T11:54:56;5.55;;;1.92;;
70757;SDS011;59316;52.964;7.102;2023-09-19T12:00:18;4.63;;;1.70;;
70757;SDS011;59316;52.964;7.102;2023-09-19T12:05:40;10.15;;;1.75;;
70757;SDS011;59316;52.964;7.102;2023-09-19T12:11:01;7.63;;;1.70;;
70757;SDS011;59316;52.964;7.102;2023-09-19T12:16:23;4.88;;;1.60;;
70757;SDS011;59316;52.964;7.102;2023-09-19T12:21:44;7.82;;;1.85;;
70757;SDS011;59316;52.964;7.102;2023-09-19T12:27:11;8.63;;;2.03;;
70757;SDS011;59316;52.964;7.102;2023-09-19T12:32:35;7.63;;;1.58;;
70757;SDS011;59316;52.964;7.102;2023-09-19T12:37:57;8.75;;;1.45;;
70757;SDS011;59316;52.964;7.102;2023-09-19T12:43:18;8.05;;;1.88;;
70757;SDS011;59316;52.964;7.102;2023-09-19T12:48:40;7.13;;;1.80;;
70757;SDS011;59316;52.964;7.102;2023-09-19T12:54:02;7.90;;;1.73;;
70757;SDS011;59316;52.964;7.102;2023-09-19T12:59:29;9.45;;;1.60;;
70757;SDS011;59316;52.964;7.102;2023-09-19T13:04:54;3.75;;;1.40;;
70757;SDS011;59316;52.964;7.102;2023-09-19T13:10:15;5.22;;;1.45;;
70757;SDS011;59316;52.964;7.102;2023-09-19T13:15:51;8.18;;;1.88;;
70757;SDS011;59316;52.964;7.102;2023-09-19T13:21:13;8.38;;;1.50;;
70757;SDS011;59316;52.964;7.102;2023-09-19T13:26:35;7.40;;;1.60;;
70757;SDS011;59316;52.964;7.102;2023-09-19T13:31:56;5.38;;;1.67;;
70757;SDS011;59316;52.964;7.102;2023-09-19T13:37:17;11.70;;;1.92;;
70757;SDS011;59316;52.964;7.102;2023-09-19T13:42:38;9.63;;;1.92;;
70757;SDS011;59316;52.964;7.102;2023-09-19T13:48:02;5.68;;;1.70;;
70757;SDS011;59316;52.964;7.102;2023-09-19T13:53:23;9.43;;;1.50;;
70757;SDS011;59316;52.964;7.102;2023-09-19T13:58:44;7.20;;;1.63;;
70757;SDS011;59316;52.964;7.102;2023-09-19T14:04:05;5.80;;;1.55;;
70757;SDS011;59316;52.964;7.102;2023-09-19T14:09:27;5.38;;;1.38;;
70757;SDS011;59316;52.964;7.102;2023-09-19T14:14:48;5.75;;;1.30;;
70757;SDS011;59316;52.964;7.102;2023-09-19T14:20:09;5.35;;;1.10;;
70757;SDS011;59316;52.964;7.102;2023-09-19T14:25:31;6.72;;;1.58;;
70757;SDS011;59316;52.964;7.102;2023-09-19T14:30:55;6.13;;;1.70;;
70757;SDS011;59316;52.964;7.102;2023-09-19T14:36:17;5.13;;;1.02;;
70757;SDS011;59316;52.964;7.102;2023-09-19T14:41:38;6.43;;;1.40;;
70757;SDS011;59316;52.964;7.102;2023-09-19T14:46:59;6.45;;;1.20;;
70757;SDS011;59316;52.964;7.102;2023-09-19T14:52:20;6.68;;;1.27;;
70757;SDS011;59316;52.964;7.102;2023-09-19T14:57:42;5.65;;;1.30;;
70757;SDS011;59316;52.964;7.102;2023-09-19T15:03:03;4.10;;;1.00;;
70757;SDS011;59316;52.964;7.102;2023-09-19T15:08:25;6.35;;;1.27;;
70757;SDS011;59316;52.964;7.102;2023-09-19T15:13:46;8.60;;;1.60;;
70757;SDS011;59316;52.964;7.102;2023-09-19T15:19:11;2.55;;;0.75;;
70757;SDS011;59316;52.964;7.102;2023-09-19T15:24:32;3.35;;;0.90;;
70757;SDS011;59316;52.964;7.102;2023-09-19T15:29:53;5.72;;;1.30;;
70757;SDS011;59316;52.964;7.102;2023-09-19T15:35:15;3.42;;;0.90;;
70757;SDS011;59316;52.964;7.102;2023-09-19T15:40:36;3.13;;;0.98;;
70757;SDS011;59316;52.964;7.102;2023-09-19T15:46:07;5.88;;;1.10;;
70757;SDS011;59316;52.964;7.102;2023-09-19T15:51:29;5.78;;;1.00;;
70757;SDS011;59316;52.964;7.102;2023-09-19T15:56:50;2.78;;;1.10;;
70757;SDS011;59316;52.964;7.102;2023-09-19T16:02:11;5.35;;;1.38;;
70757;SDS011;59316;52.964;7.102;2023-09-19T16:07:33;5.05;;;1.00;;
70757;SDS011;59316;52.964;7.102;2023-09-19T16:12:54;5.57;;;1.08;;
70757;SDS011;59316;52.964;7.102;2023-09-19T16:18:15;4.32;;;1.20;;
70757;SDS011;59316;52.964;7.102;2023-09-19T16:23:37;3.65;;;1.00;;
70757;SDS011;59316;52.964;7.102;2023-09-19T16:28:58;3.47;;;0.98;;
70757;SDS011;59316;52.964;7.102;2023-09-19T16:34:20;4.95;;;1.20;;
70757;SDS011;59316;52.964;7.102;2023-09-19T16:39:41;4.72;;;1.05;;
70757;SDS011;59316;52.964;7.102;2023-09-19T16:45:03;5.45;;;1.10;;
70757;SDS011;59316;52.964;7.102;2023-09-19T16:50:24;5.15;;;1.00;;
70757;SDS011;59316;52.964;7.102;2023-09-19T16:55:46;4.78;;;1.10;;
70757;SDS011;59316;52.964;7.102;2023-09-19T17:01:08;5.63;;;1.30;;
70757;SDS011;59316;52.964;7.102;2023-09-19T17:06:31;5.43;;;1.48;;
70757;SDS011;59316;52.964;7.102;2023-09-19T17:11:52;3.50;;;1.50;;
70757;SDS011;59316;52.964;7.102;2023-09-19T17:17:13;3.55;;;1.23;;
70757;SDS011;59316;52.964;7.102;2023-09-19T17:22:35;3.70;;;1.05;;
70757;SDS011;59316;52.964;7.102;2023-09-19T17:27:56;3.20;;;1.27;;
70757;SDS011;59316;52.964;7.102;2023-09-19T17:33:17;4.07;;;1.58;;
70757;SDS011;59316;52.964;7.102;2023-09-19T17:38:42;4.75;;;1.60;;
70757;SDS011;59316;52.964;7.102;2023-09-19T17:44:06;4.63;;;1.42;;
70757;SDS011;59316;52.964;7.102;2023-09-19T17:49:28;4.97;;;1.40;;
70757;SDS011;59316;52.964;7.102;2023-09-19T17:54:49;3.20;;;1.08;;
70757;SDS011;59316;52.964;7.102;2023-09-19T18:00:11;4.18;;;1.75;;
70757;SDS011;59316;52.964;7.102;2023-09-19T18:05:32;4.90;;;1.50;;
70757;SDS011;59316;52.964;7.102;2023-09-19T18:10:54;5.55;;;1.30;;
70757;SDS011;59316;52.964;7.102;2023-09-19T18:16:16;6.28;;;1.77;;
70757;SDS011;59316;52.964;7.102;2023-09-19T18:21:41;2.80;;;1.20;;
70757;SDS011;59316;52.964;7.102;2023-09-19T18:27:03;7.55;;;1.75;;
70757;SDS011;59316;52.964;7.102;2023-09-19T18:32:25;6.03;;;2.00;;
70757;SDS011;59316;52.964;7.102;2023-09-19T18:37:46;5.13;;;1.80;;
70757;SDS011;59316;52.964;7.102;2023-09-19T18:43:08;3.42;;;1.95;;
70757;SDS011;59316;52.964;7.102;2023-09-19T18:48:29;3.97;;;2.13;;
70757;SDS011;59316;52.964;7.102;2023-09-19T18:53:51;7.13;;;2.33;;
70757;SDS011;59316;52.964;7.102;2023-09-19T18:59:31;4.43;;;1.98;;
70757;SDS011;59316;52.964;7.102;2023-09-19T19:04:52;7.68;;;2.25;;
70757;SDS011;59316;52.964;7.102;2023-09-19T19:10:14;7.15;;;2.45;;
70757;SDS011;59316;52.964;7.102;2023-09-19T19:15:35;6.35;;;2.58;;
70757;SDS011;59316;52.964;7.102;2023-09-19T19:21:02;5.15;;;2.38;;
70757;SDS011;59316;52.964;7.102;2023-09-19T19:26:26;4.95;;;2.47;;
70757;SDS011;59316;52.964;7.102;2023-09-19T19:31:47;9.23;;;2.53;;
70757;SDS011;59316;52.964;7.102;2023-09-19T19:37:09;5.15;;;2.30;;
70757;SDS011;59316;52.964;7.102;2023-09-19T19:42:30;4.85;;;2.58;;
70757;SDS011;59316;52.964;7.102;2023-09-19T19:47:51;7.43;;;2.72;;
70757;SDS011;59316;52.964;7.102;2023-09-19T19:53:13;5.68;;;2.70;;
70757;SDS011;59316;52.964;7.102;2023-09-19T19:58:34;6.22;;;2.80;;
70757;SDS011;59316;52.964;7.102;2023-09-19T20:03:56;9.68;;;2.50;;
70757;SDS011;59316;52.964;7.102;2023-09-19T20:09:17;7.63;;;2.58;;
70757;SDS011;59316;52.964;7.102;2023-09-19T20:14:39;8.48;;;2.83;;
70757;SDS011;59316;52.964;7.102;2023-09-19T20:20:00;5.82;;;2.55;;
70757;SDS011;59316;52.964;7.102;2023-09-19T20:25:22;12.13;;;2.58;;
70757;SDS011;59316;52.964;7.102;2023-09-19T20:30:43;7.70;;;2.80;;
70757;SDS011;59316;52.964;7.102;2023-09-19T20:36:05;5.90;;;2.70;;
70757;SDS011;59316;52.964;7.102;2023-09-19T20:41:27;6.18;;;2.85;;
70757;SDS011;59316;52.964;7.102;2023-09-19T20:46:49;9.68;;;2.55;;
70757;SDS011;59316;52.964;7.102;2023-09-19T20:52:10;8.70;;;3.30;;
70757;SDS011;59316;52.964;7.102;2023-09-19T20:57:32;9.15;;;2.88;;
70757;SDS011;59316;52.964;7.102;2023-09-19T21:02:53;4.38;;;2.58;;
70757;SDS011;59316;52.964;7.102;2023-09-19T21:08:15;7.60;;;2.78;;
70757;SDS011;59316;52.964;7.102;2023-09-19T21:13:36;4.40;;;2.58;;
70757;SDS011;59316;52.964;7.102;2023-09-19T21:18:58;7.43;;;2.95;;
70757;SDS011;59316;52.964;7.102;2023-09-19T21:24:19;6.78;;;2.60;;
70757;SDS011;59316;52.964;7.102;2023-09-19T21:29:40;8.45;;;2.75;;
70757;SDS011;59316;52.964;7.102;2023-09-19T21:35:02;9.05;;;3.20;;
70757;SDS011;59316;52.964;7.102;2023-09-19T21:40:23;5.40;;;2.40;;
70757;SDS011;59316;52.964;7.102;2023-09-19T21:45:45;6.80;;;2.65;;
70757;SDS011;59316;52.964;7.102;2023-09-19T21:51:06;7.85;;;2.65;;
70757;SDS011;59316;52.964;7.102;2023-09-19T21:56:29;6.03;;;2.70;;
70757;SDS011;59316;52.964;7.102;2023-09-19T22:01:51;6.00;;;2.67;;
70757;SDS011;59316;52.964;7.102;2023-09-19T22:07:13;11.23;;;2.25;;
70757;SDS011;59316;52.964;7.102;2023-09-19T22:12:34;5.00;;;2.50;;
70757;SDS011;59316;52.964;7.102;2023-09-19T22:17:55;3.97;;;2.20;;
70757;SDS011;59316;52.964;7.102;2023-09-19T22:23:17;8.48;;;2.80;;
70757;SDS011;59316;52.964;7.102;2023-09-19T22:28:39;8.32;;;3.03;;
70757;SDS011;59316;52.964;7.102;2023-09-19T22:34:01;4.47;;;2.00;;
70757;SDS011;59316;52.964;7.102;2023-09-19T22:39:23;6.75;;;2.58;;
70757;SDS011;59316;52.964;7.102;2023-09-19T22:44:44;3.80;;;2.10;;
70757;SDS011;59316;52.964;7.102;2023-09-19T22:50:05;7.03;;;2.17;;
70757;SDS011;59316;52.964;7.102;2023-09-19T22:55:27;8.55;;;2.47;;
70757;SDS011;59316;52.964;7.102;2023-09-19T23:00:48;9.30;;;2.28;;
70757;SDS011;59316;52.964;7.102;2023-09-19T23:06:10;5.60;;;2.22;;
70757;SDS011;59316;52.964;7.102;2023-09-19T23:11:31;7.18;;;2.40;;
70757;SDS011;59316;52.964;7.102;2023-09-19T23:16:52;5.82;;;2.28;;
70757;SDS011;59316;52.964;7.102;2023-09-19T23:22:13;6.57;;;2.47;;
70757;SDS011;59316;52.964;7.102;2023-09-19T23:27:35;4.20;;;2.13;;
70757;SDS011;59316;52.964;7.102;2023-09-19T23:32:56;7.35;;;2.45;;
70757;SDS011;59316;52.964;7.102;2023-09-19T23:38:18;8.15;;;2.40;;
70757;SDS011;59316;52.964;7.102;2023-09-19T23:43:40;8.70;;;2.70;;
70757;SDS011;59316;52.964;7.102;2023-09-19T23:49:01;7.63;;;2.67;;
70757;SDS011;59316;52.964;7.102;2023-09-19T23:54:23;6.15;;;2.33;;
70757;SDS011;59316;52.964;7.102;2023-09-19T23:59:44;5.10;;;2.38;;
